• Join FlightAware (Why Join?)
  • Login
  • US Flag 
02:39PM EDT


 

Airport Tracker/Info


-or-


 

Live Flight TrackerFlight Track Log ✈ GTX653 ✈ 28-Feb-2014 ✈ KADS - KEDC

Flight Track Log - Related Links

Times and Time Zones

All times are in EST time to prevent confusion due to time zone crossing. See the GTX653 flight status page for this flight to view local times or setup timezone preferences in your user account.

Time Position Orientation Groundspeed Altitude Reporting Facility
EST Latitude Longitude Course Direction KTS MPH feet Rate Location/Type
11:51PM 32.9500 -96.7667 157° South 148 170 2,300  Level Dallas / Fort Worth TRACON
11:52PM 32.9167 -96.7500 157° South 121 139 3,200 660 Climbing Dallas / Fort Worth TRACON
11:53PM 32.8833 -96.7500 180° South 131 151 3,700 600 Climbing Dallas / Fort Worth TRACON
11:54PM 32.8500 -96.7667 203° Southwest 134 154 4,500 600 Climbing Dallas / Fort Worth TRACON
11:55PM 32.8167 -96.7833 203° Southwest 136 157 4,900 540 Climbing Dallas / Fort Worth TRACON
11:56PM 32.7667 -96.8000 196° South 135 155 5,600 540 Climbing Dallas / Fort Worth TRACON
11:57PM 32.7333 -96.8000 180° South 138 159 6,200 480 Climbing Dallas / Fort Worth TRACON
11:58PM 32.7000 -96.8167 203° Southwest 144 166 6,600 180 Climbing Dallas / Fort Worth TRACON
11:59PM 32.6667 -96.8167 180° South 158 182 6,600  Level Dallas / Fort Worth TRACON
12:00AM 32.6167 -96.8333 196° South 163 188 6,600  Level Dallas / Fort Worth TRACON
12:01AM 32.5819 -96.8531 206° Southwest 162 186 6,600  Level Fort Worth Center
12:02AM 32.5350 -96.8692 196° South 163 188 6,600 -60 Level Fort Worth Center
12:03AM 32.4881 -96.8811 192° South 168 193 6,500  Descending Fort Worth Center
12:04AM 32.4433 -96.8953 195° South 168 193 6,600  Climbing Fort Worth Center
12:05AM 32.3994 -96.9083 194° South 166 191 6,600  Level Fort Worth Center
12:06AM 32.3564 -96.9275 201° Southwest 165 190 6,600  Level Fort Worth Center
12:07AM 32.3094 -96.9442 197° South 165 190 6,600 -60 Level Fort Worth Center
12:08AM 32.2681 -96.9581 196° South 166 191 6,500 -60 Descending Fort Worth Center
12:09AM 32.2203 -96.9750 197° South 166 191 6,500  Level Fort Worth Center
12:10AM 32.1758 -96.9911 197° South 166 191 6,500  Level Fort Worth Center
12:11AM 32.1322 -97.0064 197° South 166 191 6,600 -60 Climbing Fort Worth Center
12:12AM 32.0875 -97.0150 189° South 165 190 6,400  Descending Fort Worth Center
12:13AM 32.0444 -97.0339 200° South 165 190 6,600 60 Climbing Fort Worth Center
12:14AM 32.0006 -97.0442 191° South 165 190 6,600  Level Fort Worth Center
12:15AM 31.9597 -97.0542 192° South 165 190 6,600  Level Fort Worth Center
12:16AM 31.9144 -97.0647 191° South 165 190 6,600 -60 Level Fort Worth Center
12:17AM 31.8675 -97.0789 194° South 165 190 6,500  Descending Fort Worth Center
12:18AM 31.8253 -97.0908 194° South 164 189 6,600  Climbing Fort Worth Center
12:19AM 31.7814 -97.1058 196° South 164 189 6,500  Descending Fort Worth Center
12:20AM 31.7375 -97.1228 198° South 164 189 6,600  Climbing Fort Worth Center
12:21AM 31.6925 -97.1347 193° South 164 189 6,600  Level Fort Worth Center
12:22AM 31.6472 -97.1469 193° South 164 189 6,600 -60 Level Fort Worth Center
12:23AM 31.6000 -97.1586 192° South 167 192 6,500 -60 Descending Fort Worth Center
12:24AM 31.5558 -97.1758 198° South 167 192 6,500 60 Level Fort Worth Center
12:25AM 31.5217 -97.1897 199° South 167 192 6,600 120 Climbing Fort Worth Center
12:25AM 31.5175 -97.1906 190° South 167 192 6,600  Level Fort Worth Center
12:25AM 31.5094 -97.1919 188° South 167 192 6,600  Level Fort Worth Center
12:26AM 31.4650 -97.2078 197° South 167 192 6,600 -60 Level Fort Worth Center
12:27AM 31.4197 -97.2233 196° South 167 192 6,500 -60 Descending Fort Worth Center
12:28AM 31.3725 -97.2378 195° South 169 194 6,500  Level Fort Worth Center
12:29AM 31.3267 -97.2550 198° South 169 194 6,500  Level Fort Worth Center
12:30AM 31.2800 -97.2703 196° South 169 194 6,600 60 Climbing Fort Worth Center
12:30AM 31.2728 -97.2739 203° Southwest 171 197 6,600 -120 Level Fort Worth Center
12:31AM 31.2339 -97.2861 195° South 170 196 6,500 -120 Descending Fort Worth Center
12:31AM 31.2281 -97.2889 202° Southwest 170 196 6,500 180 Level Fort Worth Center
12:32AM 31.1886 -97.3039 198° South 169 194 6,700 60 Climbing Houston Center
12:33AM 31.1425 -97.3183 195° South 169 194 6,700  Level Houston Center
12:34AM 31.0967 -97.3339 196° South 169 194 6,700 -60 Level Houston Center
12:35AM 31.0519 -97.3506 198° South 169 194 6,600  Descending Houston Center
12:36AM 30.9992 -97.3683 196° South 169 194 6,700  Climbing Houston Center
12:37AM 30.9536 -97.3836 196° South 169 194 6,600 -60 Descending Houston Center
12:38AM 30.9083 -97.3981 195° South 169 194 6,600 -240 Level Houston Center
12:39AM 30.8603 -97.4139 196° South 174 200 6,200 -540 Descending Houston Center
12:40AM 30.8097 -97.4342 199° South 186 214 5,600 -660 Descending Houston Center
12:41AM 30.7572 -97.4494 194° South 189 217 4,900 -600 Descending Houston Center
12:42AM 30.7064 -97.4644 194° South 190 219 4,400 -600 Descending Houston Center
12:43AM 30.6656 -97.4769 195° South 185 213 3,800 -660 Descending Houston Center
12:44AM 30.6086 -97.4953 195° South 184 212 3,100 -540 Descending Houston Center
12:45AM 30.5636 -97.5128 199° South 176 203 2,800 -360 Descending Houston Center
12:46AM 30.5225 -97.5303 200° South 170 196 2,400 -420 Descending Houston Center